createdAt,value
2023-06-26T00:03:05.183Z,19.06
2023-06-26T00:18:10.872Z,19.06
2023-06-26T00:33:16.873Z,19.06
2023-06-26T00:48:22.819Z,18.81
2023-06-26T01:03:28.767Z,18.50
2023-06-26T01:18:35.470Z,18.63
2023-06-26T01:33:41.915Z,18.38
2023-06-26T01:48:59.447Z,18.44
2023-06-26T02:04:05.418Z,18.44
2023-06-26T02:19:10.991Z,18.31
2023-06-26T02:34:16.965Z,18.13
2023-06-26T02:49:23.668Z,18.06
2023-06-26T03:04:29.489Z,17.94
2023-06-26T03:19:35.161Z,17.81
2023-06-26T03:34:40.836Z,17.94
2023-06-26T03:49:46.398Z,17.88
2023-06-26T04:04:53.521Z,17.94
2023-06-26T04:19:59.116Z,17.88
2023-06-26T04:35:05.102Z,18.25
2023-06-26T04:50:11.306Z,18.19
2023-06-26T05:05:16.891Z,18.63
2023-06-26T05:20:22.392Z,18.63
2023-06-26T05:35:31.082Z,18.94
2023-06-26T05:50:38.201Z,19.31
2023-06-26T06:05:43.895Z,20.56
2023-06-26T06:20:49.891Z,21.56
2023-06-26T06:35:55.398Z,22.94
2023-06-26T06:51:00.970Z,23.19
2023-06-26T07:06:06.935Z,23.44
2023-06-26T07:21:12.769Z,25.06
2023-06-26T07:36:18.614Z,27.13
2023-06-26T07:51:25.169Z,27.63
2023-06-26T08:06:30.825Z,26.31
2023-06-26T08:21:36.451Z,28.75
2023-06-26T08:36:42.175Z,29.38
2023-06-26T08:51:54.817Z,30.31
2023-06-26T09:07:00.714Z,31.44
2023-06-26T09:22:06.989Z,32.31
2023-06-26T09:37:16.019Z,33.44
2023-06-26T09:52:22.138Z,29.94
2023-06-26T10:07:28.678Z,30.06
2023-06-26T10:22:39.903Z,28.38
2023-06-26T10:37:47.164Z,27.63
2023-06-26T10:53:20.190Z,28.94
2023-06-26T11:08:49.067Z,27.25
2023-06-26T11:23:59.978Z,28.56
2023-06-26T11:39:07.620Z,28.38
2023-06-26T11:54:14.817Z,32.81
2023-06-26T12:09:22.049Z,32.19
2023-06-26T12:24:29.011Z,31.25
2023-06-26T12:39:49.913Z,29.56
2023-06-26T12:54:57.927Z,29.00
2023-06-26T13:10:04.398Z,28.19
2023-06-26T13:25:12.715Z,28.00
2023-06-26T13:40:19.142Z,27.56
2023-06-26T13:55:25.177Z,26.81
2023-06-26T14:10:31.048Z,26.69
2023-06-26T14:25:37.383Z,26.50
2023-06-26T14:40:43.170Z,26.25
2023-06-26T14:55:49.894Z,26.56
2023-06-26T15:10:55.770Z,26.06
2023-06-26T15:26:01.652Z,26.00
2023-06-26T15:41:07.287Z,25.63
2023-06-26T15:56:15.234Z,25.13
2023-06-26T16:11:23.054Z,24.94
2023-06-26T16:26:29.140Z,24.69
2023-06-26T16:41:34.829Z,24.31
2023-06-26T16:56:41.232Z,24.06
2023-06-26T17:11:46.964Z,23.81
2023-06-26T17:26:52.542Z,23.63
2023-06-26T17:41:58.109Z,23.19
2023-06-26T17:57:03.807Z,23.00
2023-06-26T18:12:10.972Z,22.81
2023-06-26T18:27:16.715Z,22.38
2023-06-26T18:42:22.415Z,21.81
2023-06-26T18:57:28.193Z,21.44
2023-06-26T19:12:33.874Z,20.88
2023-06-26T19:27:40.921Z,20.63
2023-06-26T19:42:46.860Z,20.25
2023-06-26T19:57:53.336Z,20.00
2023-06-26T20:12:59.261Z,19.63
2023-06-26T20:28:05.192Z,19.31
2023-06-26T20:43:11.980Z,19.25
2023-06-26T20:58:17.617Z,19.25
2023-06-26T21:13:23.251Z,19.13
2023-06-26T21:28:28.849Z,19.00
2023-06-26T21:43:34.469Z,18.63
2023-06-26T21:58:39.964Z,18.94
2023-06-26T22:13:45.863Z,18.94
2023-06-26T22:28:51.450Z,18.94
2023-06-26T22:43:57.274Z,18.56
2023-06-26T22:59:02.678Z,18.44
2023-06-26T23:14:09.606Z,18.00
2023-06-26T23:29:19.073Z,17.81
2023-06-26T23:44:24.872Z,17.44
2023-06-26T23:59:30.438Z,17.13
